Time;durP1;ratioP1;P1;durP2;ratioP2;P2;SDS_P1;SDS_P2;PMS_P1;PMS_P2;Temp;Humidity;BMP_temperature;BMP_pressure;BME280_temperature;BME280_humidity;BME280_pressure;Samples;Min_cycle;Max_cycle;Signal;HPM_P1;HPM_P2
2022/12/28 00:00:01;;;;;;;1.88;1.30;;;;;;;;;;4997174;28;20062;-86
2022/12/28 00:02:26;;;;;;;3.03;1.40;;;;;;;;;;4995568;28;20042;-86
2022/12/28 00:04:52;;;;;;;2.28;1.30;;;;;;;;;;4997017;28;20125;-86
2022/12/28 00:07:17;;;;;;;1.80;1.20;;;;;;;;;;4997465;28;20059;-86
2022/12/28 00:09:43;;;;;;;2.40;1.25;;;;;;;;;;4996512;28;20050;-85
2022/12/28 00:12:08;;;;;;;1.90;1.33;;;;;;;;;;4996936;28;20027;-86
2022/12/28 00:14:34;;;;;;;1.92;1.23;;;;;;;;;;4994971;28;20376;-85
2022/12/28 00:16:59;;;;;;;2.08;1.25;;;;;;;;;;4996979;28;20049;-85
2022/12/28 00:19:25;;;;;;;2.40;1.40;;;;;;;;;;4996539;28;20450;-85
2022/12/28 00:21:52;;;;;;;3.15;1.40;;;;;;;;;;4996799;28;20037;-85
2022/12/28 00:24:23;;;;;;;2.55;1.50;;;;;;;;;;4997049;28;20044;-85
2022/12/28 00:26:49;;;;;;;2.40;1.60;;;;;;;;;;4998164;28;20030;-85
2022/12/28 00:29:15;;;;;;;2.47;1.60;;;;;;;;;;5000691;28;20018;-86
2022/12/28 00:31:41;;;;;;;2.40;1.40;;;;;;;;;;5000178;28;20034;-85
2022/12/28 00:34:06;;;;;;;2.55;1.60;;;;;;;;;;4999281;28;20050;-86
2022/12/28 00:36:32;;;;;;;2.70;1.60;;;;;;;;;;5001293;28;20034;-86
2022/12/28 00:38:58;;;;;;;2.38;1.63;;;;;;;;;;5000214;28;20412;-86
2022/12/28 00:41:24;;;;;;;4.28;1.70;;;;;;;;;;4998902;28;20093;-86
2022/12/28 00:43:49;;;;;;;2.30;1.60;;;;;;;;;;4998050;28;20514;-85
2022/12/28 00:46:16;;;;;;;2.00;1.50;;;;;;;;;;4999472;28;20056;-85
2022/12/28 00:48:42;;;;;;;2.35;1.58;;;;;;;;;;4998860;28;20499;-85
2022/12/28 00:51:12;;;;;;;2.65;1.70;;;;;;;;;;4998895;28;20045;-85
2022/12/28 00:53:37;;;;;;;2.60;1.73;;;;;;;;;;4998248;28;20031;-85
2022/12/28 00:56:05;;;;;;;5.15;2.33;;;;;;;;;;4998087;28;20034;-85
2022/12/28 00:58:30;;;;;;;4.35;2.30;;;;;;;;;;4998601;28;20031;-85
2022/12/28 01:00:56;;;;;;;9.95;4.03;;;;;;;;;;4999622;28;20041;-85
2022/12/28 01:03:22;;;;;;;7.75;3.17;;;;;;;;;;4998944;28;20043;-85
2022/12/28 01:05:50;;;;;;;7.28;3.00;;;;;;;;;;4999610;28;20109;-85
2022/12/28 01:08:15;;;;;;;4.13;2.50;;;;;;;;;;5000205;28;20069;-85
2022/12/28 01:10:41;;;;;;;4.80;2.45;;;;;;;;;;4998673;28;20031;-85
2022/12/28 01:13:06;;;;;;;3.30;2.05;;;;;;;;;;4997986;28;20495;-84
2022/12/28 01:15:33;;;;;;;2.83;1.75;;;;;;;;;;4999258;28;20088;-86
2022/12/28 01:17:58;;;;;;;2.97;1.90;;;;;;;;;;4999860;28;20042;-85
2022/12/28 01:20:25;;;;;;;6.28;2.10;;;;;;;;;;4998338;28;20022;-85
2022/12/28 01:22:51;;;;;;;3.97;2.00;;;;;;;;;;4997828;28;20038;-85
2022/12/28 01:25:16;;;;;;;3.45;2.00;;;;;;;;;;4997839;28;20435;-85
2022/12/28 01:27:42;;;;;;;3.83;2.10;;;;;;;;;;4999347;28;20129;-85
2022/12/28 01:30:09;;;;;;;3.80;1.90;;;;;;;;;;4998005;28;20060;-86
2022/12/28 01:32:36;;;;;;;6.68;3.17;;;;;;;;;;4997574;28;20062;-86
2022/12/28 01:35:02;;;;;;;8.35;3.85;;;;;;;;;;4996781;28;20038;-86
2022/12/28 01:37:27;;;;;;;6.63;3.17;;;;;;;;;;4997634;28;20046;-85
2022/12/28 01:39:53;;;;;;;6.45;2.80;;;;;;;;;;4997237;28;20038;-85
2022/12/28 01:42:18;;;;;;;4.75;2.60;;;;;;;;;;4998000;28;20411;-84
2022/12/28 01:44:47;;;;;;;3.10;2.03;;;;;;;;;;4996958;28;20026;-86
2022/12/28 01:47:25;;;;;;;3.83;2.42;;;;;;;;;;4997940;28;20038;-86
2022/12/28 01:50:02;;;;;;;3.08;2.28;;;;;;;;;;4998059;28;20072;-85
2022/12/28 01:52:34;;;;;;;3.30;1.90;;;;;;;;;;4998894;28;20030;-85
2022/12/28 01:55:12;;;;;;;2.97;1.80;;;;;;;;;;4998765;28;20089;-85
2022/12/28 01:57:49;;;;;;;3.45;2.20;;;;;;;;;;4997991;28;20606;-85
2022/12/28 02:00:16;;;;;;;3.58;2.20;;;;;;;;;;4997757;28;20057;-85
2022/12/28 02:02:59;;;;;;;3.92;2.08;;;;;;;;;;4999052;28;20057;-85
2022/12/28 02:05:29;;;;;;;5.00;2.60;;;;;;;;;;4997205;28;20030;-85
2022/12/28 02:08:06;;;;;;;7.00;3.05;;;;;;;;;;4998623;28;20030;-85
2022/12/28 02:10:32;;;;;;;7.07;3.95;;;;;;;;;;4997489;28;20207;-85
2022/12/28 02:12:59;;;;;;;7.35;4.10;;;;;;;;;;4997305;28;20038;-85
2022/12/28 02:15:26;;;;;;;10.07;4.68;;;;;;;;;;4980943;28;20038;-86
2022/12/28 02:17:51;;;;;;;8.52;4.60;;;;;;;;;;4981175;28;20049;-85
2022/12/28 02:20:18;;;;;;;5.75;3.50;;;;;;;;;;4998132;28;20090;-85
2022/12/28 02:22:57;;;;;;;4.47;2.38;;;;;;;;;;4997303;28;20027;-85
2022/12/28 02:25:31;;;;;;;3.03;2.03;;;;;;;;;;4997247;28;20427;-85
2022/12/28 02:28:32;;;;;;;2.78;2.03;;;;;;;;;;4997808;28;20037;-84
2022/12/28 02:31:07;;;;;;;3.40;2.17;;;;;;;;;;4997435;28;20038;-85
2022/12/28 02:33:43;;;;;;;3.13;2.30;;;;;;;;;;4996582;28;20046;-85
2022/12/28 02:36:21;;;;;;;4.35;2.05;;;;;;;;;;4996464;28;20038;-84
2022/12/28 02:38:57;;;;;;;4.22;2.20;;;;;;;;;;4998341;28;20034;-85
2022/12/28 02:41:24;;;;;;;2.70;1.70;;;;;;;;;;4997899;28;20034;-85
2022/12/28 02:43:51;;;;;;;2.67;1.70;;;;;;;;;;4997353;28;20037;-82
2022/12/28 02:52:29;;;;;;;2.40;1.70;;;;;;;;;;4998229;28;20137;-85
2022/12/28 02:58:30;;;;;;;2.13;1.60;;;;;;;;;;4998398;28;20038;-85
2022/12/28 03:01:25;;;;;;;3.45;1.55;;;;;;;;;;4997057;28;20039;-84
2022/12/28 03:04:28;;;;;;;2.03;1.40;;;;;;;;;;4998024;28;20054;-84
2022/12/28 03:10:05;;;;;;;3.00;1.50;;;;;;;;;;4996781;28;20038;-84
2022/12/28 03:12:55;;;;;;;1.90;1.40;;;;;;;;;;4979950;28;20034;-85
2022/12/28 03:15:30;;;;;;;2.97;1.40;;;;;;;;;;4996108;28;20085;-85
2022/12/28 03:32:28;;;;;;;2.13;1.60;;;;;;;;;;5000095;28;20057;-85
2022/12/28 03:34:54;;;;;;;2.40;1.70;;;;;;;;;;5016662;28;20517;-85
2022/12/28 03:37:26;;;;;;;3.42;1.80;;;;;;;;;;5001317;28;20038;-85
2022/12/28 03:40:32;;;;;;;4.93;2.13;;;;;;;;;;5000734;28;20066;-85
2022/12/28 03:46:06;;;;;;;2.78;1.58;;;;;;;;;;5000280;28;20542;-85
2022/12/28 03:48:34;;;;;;;2.85;1.80;;;;;;;;;;5016369;28;20041;-85
2022/12/28 03:51:00;;;;;;;1.80;1.40;;;;;;;;;;4984451;28;20020;-85
2022/12/28 03:53:35;;;;;;;2.60;1.70;;;;;;;;;;5000266;28;20410;-85
2022/12/28 03:56:08;;;;;;;2.55;1.67;;;;;;;;;;4999584;28;20027;-85
2022/12/28 03:58:34;;;;;;;2.10;1.50;;;;;;;;;;5000171;28;20081;-84
2022/12/28 04:01:00;;;;;;;2.58;1.80;;;;;;;;;;5004487;28;20038;-85
2022/12/28 04:03:25;;;;;;;2.00;1.55;;;;;;;;;;5004304;28;20093;-84
2022/12/28 04:05:51;;;;;;;1.80;1.48;;;;;;;;;;5004292;28;20077;-84
2022/12/28 04:08:16;;;;;;;2.40;1.70;;;;;;;;;;5005961;28;20366;-84
2022/12/28 04:10:42;;;;;;;2.83;1.80;;;;;;;;;;5003186;28;20037;-86
2022/12/28 04:13:08;;;;;;;2.92;1.73;;;;;;;;;;5002787;28;20030;-85
2022/12/28 04:15:54;;;;;;;2.28;1.40;;;;;;;;;;5002776;28;20030;-84
2022/12/28 04:18:20;;;;;;;3.70;1.77;;;;;;;;;;4988307;28;20038;-84
2022/12/28 04:20:46;;;;;;;2.53;1.75;;;;;;;;;;5003989;28;20061;-85
2022/12/28 04:23:12;;;;;;;2.35;1.67;;;;;;;;;;5003333;28;20031;-85
2022/12/28 04:25:37;;;;;;;4.35;1.85;;;;;;;;;;4987531;28;20037;-84
2022/12/28 04:28:03;;;;;;;2.50;1.60;;;;;;;;;;5006085;28;20057;-84
2022/12/28 04:30:47;;;;;;;2.55;1.70;;;;;;;;;;5005149;28;20041;-86
2022/12/28 04:33:12;;;;;;;2.90;1.90;;;;;;;;;;5003990;28;20470;-86
2022/12/28 04:35:39;;;;;;;2.47;1.90;;;;;;;;;;5003315;28;20034;-84
2022/12/28 04:38:05;;;;;;;3.08;1.77;;;;;;;;;;5003751;28;20055;-84
2022/12/28 04:40:31;;;;;;;2.90;1.70;;;;;;;;;;5004949;28;20046;-86
2022/12/28 04:42:56;;;;;;;4.38;1.85;;;;;;;;;;5004827;28;20042;-87
2022/12/28 04:45:22;;;;;;;2.70;1.88;;;;;;;;;;5002923;28;20038;-85
2022/12/28 04:47:47;;;;;;;3.17;2.00;;;;;;;;;;5004962;28;20034;-85
2022/12/28 04:50:12;;;;;;;7.22;4.10;;;;;;;;;;5005091;28;20043;-86
2022/12/28 04:52:38;;;;;;;3.80;2.75;;;;;;;;;;5005070;28;20117;-85
2022/12/28 04:55:04;;;;;;;3.20;2.42;;;;;;;;;;5004061;28;20028;-87
2022/12/28 04:57:29;;;;;;;2.85;2.00;;;;;;;;;;5004333;28;20176;-86
2022/12/28 04:59:55;;;;;;;2.97;2.17;;;;;;;;;;5004538;28;20098;-86
2022/12/28 05:02:20;;;;;;;2.65;1.92;;;;;;;;;;5005999;28;20110;-85
2022/12/28 05:04:45;;;;;;;2.58;1.70;;;;;;;;;;5003754;28;20525;-85
2022/12/28 05:07:11;;;;;;;3.58;2.20;;;;;;;;;;5004276;28;20037;-87
2022/12/28 05:09:36;;;;;;;3.05;2.20;;;;;;;;;;5004524;28;20503;-83
2022/12/28 05:12:03;;;;;;;2.75;2.05;;;;;;;;;;5003973;28;20050;-86
2022/12/28 05:14:29;;;;;;;3.30;1.98;;;;;;;;;;5002154;28;20088;-86
2022/12/28 05:16:54;;;;;;;3.63;2.25;;;;;;;;;;5003023;28;20046;-85
2022/12/28 05:19:20;;;;;;;4.18;2.17;;;;;;;;;;5004896;28;20035;-86
2022/12/28 05:21:45;;;;;;;4.35;2.13;;;;;;;;;;5004116;28;20038;-85
2022/12/28 05:24:11;;;;;;;3.83;2.30;;;;;;;;;;5003214;28;20034;-85
2022/12/28 05:26:36;;;;;;;3.67;1.95;;;;;;;;;;5004250;28;20038;-85
2022/12/28 05:29:01;;;;;;;3.15;2.13;;;;;;;;;;5004446;28;20037;-86
2022/12/28 05:31:27;;;;;;;3.60;2.03;;;;;;;;;;5004159;28;20042;-86
2022/12/28 05:33:53;;;;;;;3.35;2.30;;;;;;;;;;5003641;28;20049;-85
2022/12/28 05:36:22;;;;;;;3.25;2.25;;;;;;;;;;5004572;28;20042;-86
2022/12/28 05:38:48;;;;;;;2.53;1.92;;;;;;;;;;5003917;28;20042;-85
2022/12/28 05:41:21;;;;;;;3.05;2.03;;;;;;;;;;5004057;28;20110;-85
2022/12/28 05:43:47;;;;;;;2.83;1.88;;;;;;;;;;5003523;28;20049;-86
2022/12/28 05:46:17;;;;;;;2.90;1.90;;;;;;;;;;5003271;28;20042;-84
2022/12/28 05:48:43;;;;;;;2.80;2.10;;;;;;;;;;5003180;28;20098;-86
2022/12/28 05:51:11;;;;;;;3.00;1.95;;;;;;;;;;5004239;28;20502;-86
2022/12/28 05:53:38;;;;;;;2.75;1.90;;;;;;;;;;5002154;28;20045;-86
2022/12/28 05:56:06;;;;;;;3.35;1.98;;;;;;;;;;5003085;28;20125;-86
2022/12/28 05:58:32;;;;;;;3.22;1.90;;;;;;;;;;5004363;28;20034;-85
2022/12/28 06:01:08;;;;;;;3.80;2.17;;;;;;;;;;5004032;28;20045;-84
2022/12/28 06:03:34;;;;;;;3.80;2.28;;;;;;;;;;5003776;28;20106;-84
2022/12/28 06:06:07;;;;;;;4.20;2.50;;;;;;;;;;5003683;28;20050;-86
2022/12/28 06:08:34;;;;;;;2.85;2.10;;;;;;;;;;5003263;28;20042;-86
2022/12/28 06:11:02;;;;;;;3.47;2.15;;;;;;;;;;5003126;28;20026;-86
2022/12/28 06:13:28;;;;;;;2.60;2.15;;;;;;;;;;5001799;28;20034;-86
2022/12/28 06:15:54;;;;;;;4.68;2.17;;;;;;;;;;5001618;28;20124;-86
2022/12/28 06:18:19;;;;;;;4.72;2.28;;;;;;;;;;5003258;28;20069;-86
2022/12/28 06:20:45;;;;;;;3.53;2.30;;;;;;;;;;5001576;28;20030;-85
2022/12/28 06:23:10;;;;;;;3.33;2.30;;;;;;;;;;5001596;28;20467;-86
2022/12/28 06:25:37;;;;;;;3.03;2.08;;;;;;;;;;5002780;28;20049;-86
2022/12/28 06:28:02;;;;;;;4.43;2.45;;;;;;;;;;5002559;28;20026;-86
2022/12/28 06:30:28;;;;;;;2.85;2.20;;;;;;;;;;5003690;28;20510;-87
2022/12/28 06:32:55;;;;;;;3.33;2.50;;;;;;;;;;5003472;28;20455;-86
2022/12/28 06:35:21;;;;;;;3.08;2.20;;;;;;;;;;5000787;28;20491;-85
2022/12/28 06:37:47;;;;;;;3.10;2.20;;;;;;;;;;5002759;28;20033;-86
2022/12/28 06:40:13;;;;;;;2.83;1.98;;;;;;;;;;5003080;28;20121;-86
2022/12/28 06:42:38;;;;;;;3.55;2.30;;;;;;;;;;5003096;28;20038;-85
2022/12/28 06:45:04;;;;;;;4.80;2.35;;;;;;;;;;5001972;28;20049;-85
2022/12/28 06:47:30;;;;;;;3.97;2.10;;;;;;;;;;5000430;28;20053;-85
2022/12/28 06:49:55;;;;;;;2.70;2.10;;;;;;;;;;5001384;28;20419;-86
2022/12/28 06:52:21;;;;;;;2.88;2.08;;;;;;;;;;5002509;28;20049;-86
2022/12/28 06:54:46;;;;;;;2.65;1.90;;;;;;;;;;5002071;28;20034;-84
2022/12/28 06:57:12;;;;;;;3.28;2.15;;;;;;;;;;5002629;28;20030;-85
2022/12/28 06:59:37;;;;;;;3.67;2.33;;;;;;;;;;5003032;28;20399;-86
2022/12/28 07:02:02;;;;;;;4.75;2.30;;;;;;;;;;5001224;28;20049;-87
2022/12/28 07:04:28;;;;;;;4.25;2.20;;;;;;;;;;5001876;28;20038;-85
2022/12/28 07:06:53;;;;;;;3.80;2.42;;;;;;;;;;5002655;28;20487;-86
2022/12/28 07:09:19;;;;;;;3.70;2.38;;;;;;;;;;5003004;28;20030;-85
2022/12/28 07:11:48;;;;;;;3.92;2.08;;;;;;;;;;5000427;28;20048;-84
2022/12/28 07:14:13;;;;;;;3.33;2.20;;;;;;;;;;5002246;28;20051;-86
2022/12/28 07:16:39;;;;;;;5.28;2.58;;;;;;;;;;5002608;28;20487;-84
2022/12/28 07:19:05;;;;;;;4.68;2.40;;;;;;;;;;5000523;28;20065;-85
2022/12/28 07:21:33;;;;;;;2.70;2.00;;;;;;;;;;5002722;28;20109;-85
2022/12/28 07:23:58;;;;;;;3.78;2.22;;;;;;;;;;4984137;28;20042;-84
2022/12/28 07:26:29;;;;;;;5.88;2.63;;;;;;;;;;5000434;28;20034;-86
2022/12/28 07:28:56;;;;;;;4.05;2.63;;;;;;;;;;4999472;28;20090;-87
2022/12/28 07:31:24;;;;;;;4.32;2.40;;;;;;;;;;4999380;28;20169;-85
2022/12/28 07:33:52;;;;;;;4.10;2.67;;;;;;;;;;5002217;28;20069;-84
2022/12/28 07:36:19;;;;;;;4.68;2.50;;;;;;;;;;5006428;28;20066;-87
2022/12/28 07:38:45;;;;;;;4.15;2.75;;;;;;;;;;5006676;28;20037;-85
2022/12/28 07:41:12;;;;;;;5.07;2.60;;;;;;;;;;5012849;28;20035;-84
2022/12/28 07:43:38;;;;;;;5.07;2.92;;;;;;;;;;5024556;28;20061;-85
2022/12/28 07:46:07;;;;;;;5.95;3.08;;;;;;;;;;5024214;28;20021;-86
2022/12/28 07:48:34;;;;;;;4.32;2.67;;;;;;;;;;5024320;28;20411;-87
2022/12/28 07:51:15;;;;;;;4.88;2.67;;;;;;;;;;5024076;28;20025;-87
2022/12/28 07:53:42;;;;;;;4.38;2.83;;;;;;;;;;5013273;28;20030;-86
2022/12/28 07:56:08;;;;;;;4.97;2.70;;;;;;;;;;5013127;28;20033;-86
2022/12/28 07:58:35;;;;;;;4.32;2.47;;;;;;;;;;5017089;28;20049;-87
2022/12/28 08:01:08;;;;;;;5.97;3.17;;;;;;;;;;5007410;28;20038;-84
2022/12/28 08:03:34;;;;;;;8.48;3.83;;;;;;;;;;5003778;28;20049;-83
2022/12/28 08:06:03;;;;;;;8.20;3.55;;;;;;;;;;5002806;28;20034;-87
2022/12/28 08:08:32;;;;;;;4.30;2.60;;;;;;;;;;5006282;28;20034;-87
2022/12/28 08:11:01;;;;;;;2.70;1.75;;;;;;;;;;5005026;28;20026;-86
2022/12/28 08:13:30;;;;;;;2.65;1.70;;;;;;;;;;5003419;28;20038;-86
2022/12/28 08:15:55;;;;;;;5.97;3.00;;;;;;;;;;5000823;28;20471;-86
2022/12/28 08:18:21;;;;;;;2.95;1.90;;;;;;;;;;5004881;28;20088;-86
2022/12/28 08:20:46;;;;;;;2.60;1.80;;;;;;;;;;5003450;28;20034;-86
2022/12/28 08:23:11;;;;;;;3.20;1.80;;;;;;;;;;5003427;28;20026;-86
2022/12/28 08:25:37;;;;;;;3.08;1.85;;;;;;;;;;5000272;28;20034;-85
2022/12/28 08:28:03;;;;;;;2.67;1.60;;;;;;;;;;5003970;28;20041;-88
2022/12/28 08:30:28;;;;;;;2.60;1.63;;;;;;;;;;5002981;28;20044;-86
2022/12/28 08:32:54;;;;;;;3.22;1.70;;;;;;;;;;4999791;28;20088;-86
2022/12/28 08:35:19;;;;;;;4.95;1.90;;;;;;;;;;4999514;28;20403;-86
2022/12/28 08:37:44;;;;;;;2.92;1.65;;;;;;;;;;4998108;28;20458;-83
2022/12/28 08:40:10;;;;;;;2.35;1.80;;;;;;;;;;4999029;28;20049;-85
2022/12/28 08:42:36;;;;;;;4.00;2.78;;;;;;;;;;4998375;28;20042;-86
2022/12/28 08:45:01;;;;;;;4.90;2.95;;;;;;;;;;4997362;28;20040;-86
2022/12/28 08:47:27;;;;;;;3.47;2.47;;;;;;;;;;4997310;28;20442;-87
2022/12/28 08:49:52;;;;;;;4.40;1.80;;;;;;;;;;5000029;28;20026;-87
2022/12/28 08:52:18;;;;;;;2.78;1.80;;;;;;;;;;4999968;28;20037;-86
2022/12/28 08:54:43;;;;;;;3.42;1.92;;;;;;;;;;4998539;28;20477;-86
2022/12/28 08:57:09;;;;;;;4.13;1.80;;;;;;;;;;4999201;28;20030;-87
2022/12/28 08:59:34;;;;;;;3.88;2.20;;;;;;;;;;4996770;28;20439;-88
2022/12/28 09:02:00;;;;;;;3.38;2.22;;;;;;;;;;4997379;28;20037;-87
2022/12/28 09:04:25;;;;;;;3.45;2.15;;;;;;;;;;4996355;28;20037;-87
2022/12/28 09:06:51;;;;;;;2.80;1.80;;;;;;;;;;4998190;28;20096;-86
2022/12/28 09:09:20;;;;;;;2.80;1.88;;;;;;;;;;4998249;28;20517;-86
2022/12/28 09:11:47;;;;;;;3.10;1.80;;;;;;;;;;4998878;28;20045;-85
2022/12/28 09:14:13;;;;;;;4.80;1.95;;;;;;;;;;4996519;28;20062;-88
2022/12/28 09:16:39;;;;;;;3.70;1.95;;;;;;;;;;4997717;28;20085;-86
2022/12/28 09:19:07;;;;;;;4.07;1.70;;;;;;;;;;4998624;28;20034;-86
2022/12/28 09:21:36;;;;;;;3.90;1.60;;;;;;;;;;4998405;28;20038;-87
2022/12/28 09:24:01;;;;;;;2.65;1.67;;;;;;;;;;4997676;28;20038;-88
2022/12/28 09:26:30;;;;;;;3.00;1.80;;;;;;;;;;4999364;28;20384;-85
2022/12/28 09:28:58;;;;;;;3.97;2.10;;;;;;;;;;4998353;28;20038;-87
2022/12/28 09:31:25;;;;;;;2.50;1.80;;;;;;;;;;4997483;28;20034;-87
2022/12/28 09:34:00;;;;;;;2.63;1.70;;;;;;;;;;4996990;28;20049;-87
2022/12/28 09:36:27;;;;;;;4.93;1.90;;;;;;;;;;4998494;28;20034;-87
2022/12/28 09:38:53;;;;;;;2.63;1.40;;;;;;;;;;4997704;28;20034;-86
2022/12/28 09:41:29;;;;;;;4.43;2.00;;;;;;;;;;4998077;28;20041;-86
2022/12/28 09:44:10;;;;;;;2.97;1.60;;;;;;;;;;4997717;28;20483;-86
2022/12/28 09:46:42;;;;;;;3.58;1.70;;;;;;;;;;4998617;28;20030;-86
2022/12/28 09:49:16;;;;;;;3.45;1.98;;;;;;;;;;4997891;28;20046;-85
2022/12/28 09:52:04;;;;;;;4.35;2.55;;;;;;;;;;4997562;28;20436;-86
2022/12/28 09:54:30;;;;;;;3.58;2.22;;;;;;;;;;4996240;28;20080;-87
2022/12/28 09:56:56;;;;;;;3.05;1.83;;;;;;;;;;4996325;28;20026;-87
2022/12/28 09:59:33;;;;;;;3.53;1.92;;;;;;;;;;4997592;28;20038;-86
2022/12/28 10:02:03;;;;;;;2.92;1.80;;;;;;;;;;4995997;28;20042;-87
2022/12/28 10:04:29;;;;;;;3.10;1.70;;;;;;;;;;4995278;28;20117;-86
2022/12/28 10:06:56;;;;;;;4.25;2.15;;;;;;;;;;4997369;28;20042;-85
2022/12/28 10:09:28;;;;;;;1.92;1.42;;;;;;;;;;4997931;28;20073;-86
2022/12/28 10:11:54;;;;;;;2.35;1.75;;;;;;;;;;4996610;28;20035;-87
2022/12/28 10:14:33;;;;;;;2.42;1.70;;;;;;;;;;4997349;28;20049;-86
2022/12/28 10:16:59;;;;;;;2.92;1.73;;;;;;;;;;4997925;28;20042;-86
2022/12/28 10:19:26;;;;;;;2.65;1.42;;;;;;;;;;4997951;28;20030;-86
2022/12/28 10:22:01;;;;;;;7.28;1.70;;;;;;;;;;4996409;28;20038;-87
2022/12/28 10:24:28;;;;;;;2.35;1.50;;;;;;;;;;4997380;28;20093;-86
2022/12/28 10:26:57;;;;;;;3.05;1.60;;;;;;;;;;4997201;28;20053;-86
2022/12/28 10:29:23;;;;;;;2.70;1.70;;;;;;;;;;4997912;28;20435;-87
2022/12/28 10:32:02;;;;;;;2.55;1.50;;;;;;;;;;4997636;28;20034;-85
2022/12/28 10:34:30;;;;;;;3.28;1.70;;;;;;;;;;4995834;28;20034;-86
2022/12/28 10:37:04;;;;;;;3.92;1.35;;;;;;;;;;4995583;28;20068;-87
2022/12/28 10:39:31;;;;;;;2.85;1.52;;;;;;;;;;4995617;28;20034;-86
2022/12/28 10:41:59;;;;;;;2.53;1.45;;;;;;;;;;4997866;28;20045;-85
2022/12/28 10:44:26;;;;;;;2.70;1.60;;;;;;;;;;4995949;28;20560;-85
2022/12/28 10:47:04;;;;;;;5.97;1.58;;;;;;;;;;4996158;28;20483;-87
2022/12/28 10:49:33;;;;;;;3.88;1.25;;;;;;;;;;4997326;28;20117;-86
2022/12/28 10:52:05;;;;;;;3.22;1.33;;;;;;;;;;4995575;28;20132;-87
2022/12/28 10:54:33;;;;;;;4.97;2.13;;;;;;;;;;4996868;28;20376;-87
2022/12/28 10:57:00;;;;;;;3.55;1.40;;;;;;;;;;4997476;28;20061;-87
2022/12/28 10:59:27;;;;;;;2.40;1.30;;;;;;;;;;4997991;28;20130;-86
2022/12/28 11:01:57;;;;;;;1.95;1.30;;;;;;;;;;4997239;28;20038;-87
2022/12/28 11:04:25;;;;;;;2.03;1.42;;;;;;;;;;4994621;28;20038;-87
2022/12/28 11:07:01;;;;;;;2.25;1.30;;;;;;;;;;4996000;28;20037;-87
2022/12/28 11:09:33;;;;;;;3.00;1.40;;;;;;;;;;4997317;28;20052;-86
2022/12/28 11:12:22;;;;;;;2.03;1.40;;;;;;;;;;4996967;28;20456;-85
2022/12/28 11:14:48;;;;;;;4.40;1.50;;;;;;;;;;4995625;28;20030;-85
2022/12/28 11:17:18;;;;;;;1.88;1.27;;;;;;;;;;4996787;28;20040;-86
2022/12/28 11:19:45;;;;;;;2.38;1.30;;;;;;;;;;4995947;28;20122;-86
2022/12/28 11:22:14;;;;;;;2.63;1.23;;;;;;;;;;4996510;28;20073;-87
2022/12/28 11:24:39;;;;;;;1.85;1.20;;;;;;;;;;4994978;28;20061;-86
2022/12/28 11:27:10;;;;;;;2.42;1.05;;;;;;;;;;4996883;28;20039;-86
2022/12/28 11:29:38;;;;;;;1.90;1.13;;;;;;;;;;4994929;28;20038;-85
2022/12/28 11:32:14;;;;;;;2.10;1.23;;;;;;;;;;4995804;28;20038;-86
2022/12/28 11:34:40;;;;;;;2.03;1.30;;;;;;;;;;4995162;28;20533;-87
2022/12/28 11:37:12;;;;;;;1.67;1.15;;;;;;;;;;4996931;28;20070;-87
2022/12/28 11:39:46;;;;;;;3.42;1.30;;;;;;;;;;4996187;28;20085;-84
2022/12/28 11:42:52;;;;;;;5.05;1.30;;;;;;;;;;4995601;28;20085;-86
2022/12/28 11:45:50;;;;;;;2.10;1.30;;;;;;;;;;4973247;28;20037;-86
2022/12/28 11:48:40;;;;;;;2.72;1.45;;;;;;;;;;4994554;28;20574;-86
2022/12/28 11:51:18;;;;;;;2.95;1.67;;;;;;;;;;4999839;28;20407;-87
2022/12/28 11:53:43;;;;;;;4.25;1.38;;;;;;;;;;4994838;28;20034;-85
2022/12/28 11:56:19;;;;;;;3.08;1.80;;;;;;;;;;4994413;28;20510;-85
2022/12/28 11:58:59;;;;;;;4.53;1.70;;;;;;;;;;4996185;28;20057;-87
2022/12/28 12:01:32;;;;;;;2.08;1.45;;;;;;;;;;4995679;28;20063;-84
2022/12/28 12:03:57;;;;;;;5.80;1.30;;;;;;;;;;4996194;28;20423;-84
2022/12/28 12:06:45;;;;;;;4.63;1.38;;;;;;;;;;4996625;28;20511;-86
2022/12/28 12:09:20;;;;;;;3.95;1.20;;;;;;;;;;4994864;28;20045;-86
2022/12/28 12:12:20;;;;;;;1.85;1.30;;;;;;;;;;4996580;28;20097;-86
2022/12/28 12:14:52;;;;;;;3.03;1.35;;;;;;;;;;4991729;28;20042;-87
2022/12/28 12:17:23;;;;;;;3.08;1.30;;;;;;;;;;4996640;28;20038;-85
2022/12/28 12:19:57;;;;;;;4.53;1.63;;;;;;;;;;4995334;28;20038;-86
2022/12/28 12:22:22;;;;;;;;;;;;;;;;;;5000642;28;20388;-86
2022/12/28 12:25:00;;;;;;;2.55;1.50;;;;;;;;;;4999816;28;19924;-86
2022/12/28 12:27:31;;;;;;;2.50;1.35;;;;;;;;;;4999734;28;20057;-87
2022/12/28 12:30:03;;;;;;;3.47;1.80;;;;;;;;;;4999196;28;20042;-86
2022/12/28 12:32:40;;;;;;;9.73;1.98;;;;;;;;;;4999199;28;20062;-86
2022/12/28 12:35:06;;;;;;;6.78;1.42;;;;;;;;;;4998912;28;20029;-87
2022/12/28 12:37:36;;;;;;;4.32;1.40;;;;;;;;;;4999859;28;20061;-87
2022/12/28 12:40:23;;;;;;;3.47;1.80;;;;;;;;;;4998659;28;20039;-87
2022/12/28 12:42:54;;;;;;;2.70;1.50;;;;;;;;;;4998367;28;20046;-86
2022/12/28 12:45:52;;;;;;;3.40;1.67;;;;;;;;;;4997950;28;20087;-87
2022/12/28 12:48:37;;;;;;;2.63;1.45;;;;;;;;;;4990270;28;20061;-87
2022/12/28 12:51:14;;;;;;;2.67;1.50;;;;;;;;;;4984918;28;20129;-86
2022/12/28 12:53:51;;;;;;;2.13;1.50;;;;;;;;;;4999314;28;20092;-86
2022/12/28 12:56:38;;;;;;;2.17;1.48;;;;;;;;;;4997797;28;20081;-85
2022/12/28 12:59:22;;;;;;;3.65;1.90;;;;;;;;;;4998088;28;20038;-85
2022/12/28 13:02:02;;;;;;;7.32;1.55;;;;;;;;;;4998414;28;20081;-85
2022/12/28 13:04:30;;;;;;;3.20;1.83;;;;;;;;;;4997884;28;20102;-86
2022/12/28 13:06:59;;;;;;;2.75;1.55;;;;;;;;;;4999397;28;20100;-86
2022/12/28 13:09:28;;;;;;;4.60;1.70;;;;;;;;;;4998974;28;20035;-86
2022/12/28 13:11:55;;;;;;;2.88;1.60;;;;;;;;;;4999336;28;20064;-86
2022/12/28 13:14:23;;;;;;;2.80;1.80;;;;;;;;;;4998346;28;20439;-86
2022/12/28 13:16:57;;;;;;;4.03;2.05;;;;;;;;;;4999129;28;20036;-87
2022/12/28 13:19:28;;;;;;;3.78;2.25;;;;;;;;;;4999712;28;20034;-87
2022/12/28 13:21:55;;;;;;;3.25;1.90;;;;;;;;;;4998944;28;20061;-88
2022/12/28 13:24:29;;;;;;;2.58;1.50;;;;;;;;;;4998272;28;20038;-88
2022/12/28 13:26:57;;;;;;;3.72;1.85;;;;;;;;;;4999193;28;20423;-86
2022/12/28 13:29:26;;;;;;;4.85;2.30;;;;;;;;;;4998419;28;20052;-87
2022/12/28 13:31:52;;;;;;;4.80;2.30;;;;;;;;;;4998181;28;20034;-87
2022/12/28 13:34:23;;;;;;;3.15;1.98;;;;;;;;;;4998204;28;20046;-87
2022/12/28 13:36:56;;;;;;;2.70;1.80;;;;;;;;;;4998141;28;20563;-87
2022/12/28 13:39:27;;;;;;;6.32;1.95;;;;;;;;;;4998776;28;20034;-86
2022/12/28 13:42:18;;;;;;;3.20;1.83;;;;;;;;;;4998662;28;20408;-86
2022/12/28 13:44:57;;;;;;;4.68;2.10;;;;;;;;;;4998085;28;20034;-87
2022/12/28 13:47:31;;;;;;;3.78;2.00;;;;;;;;;;4998179;28;20034;-87
2022/12/28 13:50:04;;;;;;;3.33;1.65;;;;;;;;;;4998734;28;20030;-87
2022/12/28 13:52:32;;;;;;;3.38;1.90;;;;;;;;;;4998235;28;20034;-87
2022/12/28 13:55:05;;;;;;;3.65;1.45;;;;;;;;;;4997661;28;20069;-87
2022/12/28 13:57:33;;;;;;;3.88;1.58;;;;;;;;;;4997612;28;20464;-88
2022/12/28 13:59:59;;;;;;;2.83;1.50;;;;;;;;;;4998396;28;20053;-87
2022/12/28 14:02:26;;;;;;;3.28;1.48;;;;;;;;;;4998161;28;20030;-87
2022/12/28 14:04:53;;;;;;;4.65;1.60;;;;;;;;;;4996529;28;20042;-87
2022/12/28 14:07:19;;;;;;;2.92;1.42;;;;;;;;;;4980233;28;20626;-87
2022/12/28 14:09:46;;;;;;;2.97;1.88;;;;;;;;;;4998635;28;20057;-88
2022/12/28 14:12:13;;;;;;;3.38;1.67;;;;;;;;;;4998476;28;20034;-87
2022/12/28 14:14:40;;;;;;;3.45;1.45;;;;;;;;;;4998054;28;20042;-88
2022/12/28 14:17:06;;;;;;;2.33;1.45;;;;;;;;;;4997989;28;20030;-87
2022/12/28 14:19:33;;;;;;;4.28;1.60;;;;;;;;;;4996925;28;20511;-87
2022/12/28 14:21:58;;;;;;;2.63;1.60;;;;;;;;;;4998377;28;20048;-86
2022/12/28 14:24:24;;;;;;;3.17;1.75;;;;;;;;;;4997556;28;20511;-88
2022/12/28 14:26:56;;;;;;;3.88;2.10;;;;;;;;;;4996790;28;20061;-88
2022/12/28 14:29:33;;;;;;;3.63;2.30;;;;;;;;;;4996906;28;20176;-86
2022/12/28 14:32:04;;;;;;;5.18;3.20;;;;;;;;;;4997811;28;20120;-87
2022/12/28 14:34:33;;;;;;;3.47;2.13;;;;;;;;;;4997231;28;20034;-87
2022/12/28 14:36:58;;;;;;;8.88;2.45;;;;;;;;;;4997519;28;20483;-87
2022/12/28 14:39:26;;;;;;;6.93;3.40;;;;;;;;;;4997812;28;20049;-87
2022/12/28 14:41:52;;;;;;;6.28;3.28;;;;;;;;;;4997689;28;20042;-87
2022/12/28 14:44:35;;;;;;;5.68;3.28;;;;;;;;;;4996515;28;20045;-88
2022/12/28 14:47:00;;;;;;;8.10;3.45;;;;;;;;;;4997954;28;20093;-86
2022/12/28 14:49:28;;;;;;;9.18;3.65;;;;;;;;;;4996732;28;20046;-86
2022/12/28 14:52:06;;;;;;;5.38;3.53;;;;;;;;;;4997384;28;20121;-87
2022/12/28 14:54:52;;;;;;;8.38;4.90;;;;;;;;;;4995341;28;20077;-87
2022/12/28 14:57:25;;;;;;;7.00;3.28;;;;;;;;;;4996289;28;20041;-86
2022/12/28 15:00:05;;;;;;;7.00;3.47;;;;;;;;;;4997010;28;20062;-87
2022/12/28 15:02:33;;;;;;;7.90;3.55;;;;;;;;;;4996834;28;20042;-88
2022/12/28 15:04:59;;;;;;;8.65;4.00;;;;;;;;;;4995662;28;20034;-86
2022/12/28 15:07:25;;;;;;;10.20;5.38;;;;;;;;;;4996551;28;20030;-86
2022/12/28 15:09:50;;;;;;;4.57;2.97;;;;;;;;;;4996537;28;20038;-86
2022/12/28 15:12:21;;;;;;;4.22;2.70;;;;;;;;;;4996899;28;20073;-88
2022/12/28 15:14:48;;;;;;;5.28;2.90;;;;;;;;;;4996622;28;20113;-86
2022/12/28 15:17:14;;;;;;;3.67;2.10;;;;;;;;;;4997070;28;20169;-87
2022/12/28 15:19:44;;;;;;;4.50;2.28;;;;;;;;;;4996463;28;20045;-87
2022/12/28 15:22:10;;;;;;;17.52;3.45;;;;;;;;;;4996846;28;20388;-87
2022/12/28 15:24:35;;;;;;;4.50;2.60;;;;;;;;;;4994424;28;20057;-87
2022/12/28 15:27:02;;;;;;;6.43;3.10;;;;;;;;;;5026359;23;20046;-87